Time;durP1;ratioP1;P1;durP2;ratioP2;P2;SDS_P1;SDS_P2;PMS_P1;PMS_P2;Temp;Humidity;BMP_temperature;BMP_pressure;BME280_temperature;BME280_humidity;BME280_pressure;Samples;Min_cycle;Max_cycle;Signal;HPM_P1;HPM_P2
2022/08/07 00:01:55;;;;;;;2.28;0.65;;;13.10;99.90;;;;;;5009620;28;20034;-83
2022/08/07 00:04:24;;;;;;;4.63;0.68;;;13.10;99.90;;;;;;5013034;28;20076;-84
2022/08/07 00:07:09;;;;;;;1.88;0.50;;;13.10;99.90;;;;;;5010177;28;20432;-84
2022/08/07 00:09:34;;;;;;;1.20;0.47;;;13.10;99.90;;;;;;5013678;28;20140;-84
2022/08/07 00:12:16;;;;;;;1.50;0.50;;;13.10;99.90;;;;;;5001440;28;20676;-84
2022/08/07 00:14:42;;;;;;;0.57;0.52;;;13.10;99.90;;;;;;5011117;28;20109;-84
2022/08/07 00:17:09;;;;;;;0.40;0.40;;;13.00;99.90;;;;;;5009884;28;20145;-85
2022/08/07 00:19:34;;;;;;;1.02;0.73;;;13.00;99.90;;;;;;5010224;28;20037;-84
2022/08/07 00:22:10;;;;;;;0.85;0.70;;;12.90;99.90;;;;;;5009743;28;20497;-84
2022/08/07 00:24:35;;;;;;;0.60;0.60;;;12.90;99.90;;;;;;5010350;28;20029;-84
2022/08/07 00:27:11;;;;;;;1.25;0.50;;;12.90;99.90;;;;;;5011498;28;20482;-84
2022/08/07 00:29:37;;;;;;;1.27;0.55;;;12.90;99.90;;;;;;5011862;28;20367;-84
2022/08/07 00:32:03;;;;;;;1.15;0.43;;;12.90;99.90;;;;;;5009679;28;20100;-84
2022/08/07 00:34:31;;;;;;;0.40;0.40;;;12.90;99.90;;;;;;5002524;28;20060;-85
2022/08/07 00:36:56;;;;;;;1.05;0.60;;;12.80;99.90;;;;;;5008766;28;20379;-84
2022/08/07 00:39:23;;;;;;;0.60;0.60;;;12.70;99.90;;;;;;5008760;28;20041;-84
2022/08/07 00:42:00;;;;;;;0.50;0.50;;;12.70;99.90;;;;;;5011524;28;20025;-84
2022/08/07 00:44:42;;;;;;;0.55;0.55;;;12.70;99.90;;;;;;4999758;28;20101;-85
2022/08/07 00:47:08;;;;;;;1.35;0.70;;;12.70;99.90;;;;;;5010553;28;20095;-84
2022/08/07 00:49:40;;;;;;;1.10;0.70;;;12.70;99.90;;;;;;5012797;28;20018;-85
2022/08/07 00:52:09;;;;;;;0.40;0.40;;;12.70;99.90;;;;;;5003575;28;21829;-85
2022/08/07 00:54:48;;;;;;;2.55;0.80;;;12.70;99.90;;;;;;5009178;28;20481;-84
2022/08/07 00:57:14;;;;;;;1.05;0.60;;;12.60;99.90;;;;;;5009554;28;20033;-85
2022/08/07 00:59:40;;;;;;;1.02;0.70;;;12.60;99.90;;;;;;5010095;28;20077;-84
2022/08/07 01:02:09;;;;;;;4.32;0.70;;;12.60;99.90;;;;;;5006616;28;20129;-85
2022/08/07 01:04:35;;;;;;;0.82;0.60;;;12.60;99.90;;;;;;5011129;28;20413;-85
2022/08/07 01:07:03;;;;;;;0.60;0.60;;;12.60;99.90;;;;;;5006704;28;20048;-84
2022/08/07 01:09:29;;;;;;;0.70;0.70;;;12.60;99.90;;;;;;5004153;28;20107;-84
2022/08/07 01:12:06;;;;;;;1.55;0.70;;;12.60;99.90;;;;;;5009221;28;20032;-84
2022/08/07 01:14:31;;;;;;;0.50;0.50;;;12.60;99.90;;;;;;5009637;28;20565;-83
2022/08/07 01:17:10;;;;;;;0.73;0.57;;;12.60;99.90;;;;;;5012443;28;20053;-83
2022/08/07 01:19:36;;;;;;;0.80;0.57;;;12.50;99.90;;;;;;5007118;28;20034;-83
2022/08/07 01:22:02;;;;;;;0.85;0.50;;;12.50;99.90;;;;;;5007107;28;20033;-83
2022/08/07 01:24:32;;;;;;;1.25;0.57;;;12.40;99.90;;;;;;5013987;28;20029;-84
2022/08/07 01:26:59;;;;;;;0.60;0.60;;;12.50;99.90;;;;;;5015039;28;20482;-85
2022/08/07 01:29:30;;;;;;;0.82;0.70;;;12.50;99.90;;;;;;5014992;28;20029;-83
2022/08/07 01:31:57;;;;;;;0.60;0.60;;;12.50;99.90;;;;;;5011598;28;20053;-84
2022/08/07 01:34:28;;;;;;;2.28;0.77;;;12.40;99.90;;;;;;5016223;28;20033;-84
2022/08/07 01:36:54;;;;;;;1.48;0.60;;;12.30;99.90;;;;;;5012056;28;20038;-84
2022/08/07 01:39:20;;;;;;;0.60;0.60;;;12.40;99.90;;;;;;5002464;28;20030;-83
2022/08/07 01:41:49;;;;;;;0.88;0.88;;;12.40;99.90;;;;;;5011403;28;20509;-83
2022/08/07 01:44:15;;;;;;;0.50;0.50;;;12.30;99.90;;;;;;5009976;28;20508;-83
2022/08/07 01:46:41;;;;;;;1.02;0.63;;;12.30;99.90;;;;;;5009245;28;20121;-83
2022/08/07 01:49:10;;;;;;;2.88;0.80;;;12.30;99.90;;;;;;5012517;28;20030;-84
2022/08/07 01:51:46;;;;;;;0.85;0.60;;;12.30;99.90;;;;;;5003982;28;20546;-84
2022/08/07 01:54:13;;;;;;;1.00;0.70;;;12.20;99.90;;;;;;5008970;28;20025;-84
2022/08/07 01:57:28;;;;;;;0.88;0.82;;;12.20;99.90;;;;;;5016213;28;20076;-84
2022/08/07 02:03:20;;;;;;;0.70;0.65;;;12.20;99.90;;;;;;4962247;28;20105;-83
2022/08/07 02:06:18;;;;;;;2.10;0.80;;;12.20;99.90;;;;;;5010752;28;20433;-83
2022/08/07 02:08:46;;;;;;;0.50;0.50;;;12.10;99.90;;;;;;5007155;28;20417;-83
2022/08/07 02:11:12;;;;;;;0.50;0.50;;;12.10;99.90;;;;;;5014314;28;20029;-83
2022/08/07 02:13:43;;;;;;;0.60;0.60;;;12.20;99.90;;;;;;5015737;28;20100;-84
2022/08/07 02:16:10;;;;;;;1.05;0.57;;;12.10;99.90;;;;;;5014351;28;20029;-84
2022/08/07 02:18:37;;;;;;;2.05;0.75;;;12.00;99.90;;;;;;5015493;28;20053;-84
2022/08/07 02:21:23;;;;;;;0.60;0.60;;;12.00;99.90;;;;;;5015500;28;20122;-84
2022/08/07 02:23:50;;;;;;;0.60;0.60;;;12.00;99.90;;;;;;5013689;28;20077;-84
2022/08/07 02:26:16;;;;;;;1.88;0.40;;;12.00;99.90;;;;;;5001865;28;20109;-84
2022/08/07 02:29:05;;;;;;;0.65;0.50;;;12.00;99.90;;;;;;5009748;28;20030;-83
2022/08/07 02:32:02;;;;;;;1.95;0.73;;;12.00;99.90;;;;;;4998960;28;20445;-83
2022/08/07 02:34:30;;;;;;;0.60;0.60;;;12.00;99.90;;;;;;4999244;28;20021;-83
2022/08/07 02:36:57;;;;;;;1.95;0.75;;;11.90;99.90;;;;;;5014437;28;20037;-84
2022/08/07 02:39:25;;;;;;;1.50;0.70;;;11.90;99.90;;;;;;5012643;28;20058;-84
2022/08/07 02:41:52;;;;;;;0.57;0.57;;;11.90;99.90;;;;;;5013909;28;20061;-83
2022/08/07 02:44:18;;;;;;;1.17;0.70;;;11.90;99.90;;;;;;5015101;28;20030;-83
2022/08/07 02:46:47;;;;;;;1.08;0.70;;;11.90;99.90;;;;;;5012620;28;20083;-83
2022/08/07 02:49:13;;;;;;;0.40;0.40;;;11.90;99.90;;;;;;5004987;28;20033;-83
2022/08/07 02:51:41;;;;;;;1.50;0.70;;;11.80;99.90;;;;;;5004523;28;20022;-83
2022/08/07 03:04:34;;;;;;;0.70;0.70;;;11.80;99.90;;;;;;5014535;28;20025;-84
2022/08/07 03:07:01;;;;;;;1.23;0.68;;;11.80;99.90;;;;;;5000028;28;20469;-83
2022/08/07 03:09:27;;;;;;;0.57;0.57;;;11.70;99.90;;;;;;5008593;28;20401;-83
2022/08/07 03:12:39;;;;;;;0.93;0.65;;;11.70;99.90;;;;;;5013388;28;20025;-83
2022/08/07 03:15:06;;;;;;;1.85;0.82;;;11.70;99.90;;;;;;5005805;28;20018;-83
2022/08/07 03:17:32;;;;;;;2.33;0.70;;;11.70;99.90;;;;;;5005255;28;20089;-84
2022/08/07 03:20:10;;;;;;;0.82;0.60;;;11.60;99.90;;;;;;4998937;28;20121;-83
2022/08/07 03:22:38;;;;;;;1.05;0.75;;;11.60;99.90;;;;;;5014475;28;20029;-84
2022/08/07 03:25:23;;;;;;;1.38;0.77;;;11.60;99.90;;;;;;5004980;28;20036;-84
2022/08/07 03:27:50;;;;;;;0.50;0.50;;;11.60;99.90;;;;;;4998885;28;20030;-84
2022/08/07 03:30:43;;;;;;;5.03;0.90;;;11.60;99.90;;;;;;4995866;28;20037;-84
2022/08/07 03:33:10;;;;;;;2.13;0.93;;;11.60;99.90;;;;;;5011617;28;20026;-83
2022/08/07 03:35:45;;;;;;;3.17;0.98;;;11.60;99.90;;;;;;5007880;28;20037;-83
2022/08/07 03:38:12;;;;;;;4.20;1.10;;;11.60;99.90;;;;;;5010823;28;20049;-83
2022/08/07 03:40:55;;;;;;;4.78;0.90;;;11.60;99.90;;;;;;5011024;28;20057;-83
2022/08/07 03:43:21;;;;;;;1.80;0.77;;;11.70;99.90;;;;;;5009694;28;20080;-84
2022/08/07 03:45:47;;;;;;;1.63;0.80;;;11.70;99.90;;;;;;5006840;28;20026;-83
2022/08/07 03:48:45;;;;;;;0.98;0.88;;;11.70;99.90;;;;;;5012486;28;20061;-83
2022/08/07 03:51:12;;;;;;;0.63;0.60;;;11.70;99.90;;;;;;5011471;28;20096;-83
2022/08/07 03:53:38;;;;;;;0.80;0.80;;;11.80;99.90;;;;;;4997465;28;20469;-83
2022/08/07 03:56:05;;;;;;;1.13;0.80;;;11.70;99.90;;;;;;5003673;28;20035;-83
2022/08/07 03:58:31;;;;;;;1.08;0.60;;;11.80;99.90;;;;;;5012696;28;20025;-83
2022/08/07 04:01:19;;;;;;;1.60;0.77;;;11.80;99.90;;;;;;5011478;28;20053;-83
2022/08/07 04:03:45;;;;;;;2.08;0.57;;;11.80;99.90;;;;;;5007519;28;20026;-83
2022/08/07 04:06:11;;;;;;;1.67;0.68;;;11.80;99.90;;;;;;5013055;28;20478;-83
2022/08/07 04:08:41;;;;;;;0.85;0.70;;;11.90;99.90;;;;;;5008783;28;20034;-83
2022/08/07 04:11:09;;;;;;;0.70;0.68;;;11.90;99.90;;;;;;4996777;28;20497;-83
2022/08/07 04:13:35;;;;;;;1.70;0.60;;;11.90;99.90;;;;;;5006769;28;20117;-83
2022/08/07 04:16:20;;;;;;;0.40;0.40;;;12.00;99.90;;;;;;5013505;28;20079;-83
2022/08/07 04:18:46;;;;;;;1.08;0.80;;;12.00;99.90;;;;;;5013433;28;20409;-83
2022/08/07 04:21:11;;;;;;;3.78;0.65;;;12.00;99.90;;;;;;5004553;28;20030;-83
2022/08/07 04:24:11;;;;;;;1.58;0.80;;;12.00;99.90;;;;;;5007013;28;20037;-83
2022/08/07 04:26:40;;;;;;;4.25;0.65;;;12.10;99.90;;;;;;5005106;28;20461;-83
2022/08/07 04:29:28;;;;;;;3.67;1.05;;;12.10;99.90;;;;;;5001446;28;20021;-83
2022/08/07 04:32:01;;;;;;;4.00;1.00;;;12.10;99.90;;;;;;5010797;28;20042;-84
2022/08/07 04:34:27;;;;;;;3.33;0.80;;;12.10;99.90;;;;;;5009560;28;20116;-83
2022/08/07 04:36:53;;;;;;;3.78;0.70;;;12.10;99.90;;;;;;5011876;28;20092;-83
2022/08/07 04:39:19;;;;;;;1.13;0.80;;;12.10;99.90;;;;;;5006564;28;20034;-83
2022/08/07 04:41:47;;;;;;;3.00;0.77;;;12.10;99.90;;;;;;5000965;28;20391;-84
2022/08/07 04:44:15;;;;;;;0.95;0.77;;;12.20;99.90;;;;;;5004564;28;20034;-84
2022/08/07 04:47:26;;;;;;;0.98;0.75;;;12.20;99.90;;;;;;5007458;28;20019;-84
2022/08/07 04:50:16;;;;;;;2.58;1.58;;;12.30;99.90;;;;;;4998254;28;20042;-83
2022/08/07 04:53:19;;;;;;;2.22;1.00;;;12.30;99.90;;;;;;5012738;28;20030;-84
2022/08/07 04:55:59;;;;;;;1.65;0.80;;;12.40;99.90;;;;;;5002359;28;20014;-84
2022/08/07 04:58:46;;;;;;;3.15;0.70;;;12.40;99.90;;;;;;5026085;28;20030;-84
2022/08/07 05:01:41;;;;;;;5.50;1.00;;;12.50;99.90;;;;;;5010697;28;20485;-83
2022/08/07 05:04:13;;;;;;;2.17;0.90;;;12.60;99.90;;;;;;5006113;28;20108;-84
2022/08/07 05:07:11;;;;;;;1.00;0.75;;;12.60;99.90;;;;;;5008535;28;20038;-84
2022/08/07 05:10:18;;;;;;;1.95;0.80;;;12.70;99.90;;;;;;5008652;28;20029;-83
2022/08/07 05:13:06;;;;;;;4.18;0.80;;;12.80;99.90;;;;;;5009080;28;20505;-84
2022/08/07 05:15:39;;;;;;;1.33;0.80;;;12.80;99.90;;;;;;5009821;28;20058;-84
2022/08/07 05:18:19;;;;;;;1.38;0.77;;;12.90;99.90;;;;;;5012756;28;20711;-84
2022/08/07 05:20:48;;;;;;;1.95;1.00;;;12.90;99.90;;;;;;4995698;28;20044;-84
2022/08/07 05:23:19;;;;;;;0.50;0.50;;;13.00;99.90;;;;;;5001712;28;20540;-83
2022/08/07 05:25:56;;;;;;;0.77;0.77;;;13.00;99.90;;;;;;5010616;28;20026;-84
2022/08/07 05:28:25;;;;;;;1.48;0.80;;;13.10;99.90;;;;;;5012619;28;20022;-84
2022/08/07 05:30:54;;;;;;;2.05;0.82;;;13.10;99.90;;;;;;5007261;28;20130;-84
2022/08/07 05:33:22;;;;;;;3.65;1.15;;;13.20;99.90;;;;;;5012258;28;20359;-84
2022/08/07 05:35:53;;;;;;;0.82;0.80;;;13.30;99.90;;;;;;5010966;28;20930;-84
2022/08/07 05:38:23;;;;;;;3.13;0.98;;;13.40;99.90;;;;;;5011573;28;20087;-84
2022/08/07 05:40:58;;;;;;;3.65;1.23;;;13.40;99.90;;;;;;5008549;28;20018;-84
2022/08/07 05:43:27;;;;;;;0.75;0.75;;;13.50;99.90;;;;;;5006843;28;20379;-84
2022/08/07 05:45:58;;;;;;;1.60;0.85;;;13.60;99.90;;;;;;5009697;28;20030;-84
2022/08/07 05:48:24;;;;;;;1.00;0.90;;;13.60;99.90;;;;;;5002310;28;21064;-83
2022/08/07 05:50:51;;;;;;;0.90;0.75;;;13.70;99.90;;;;;;5007451;28;20022;-83
2022/08/07 05:53:16;;;;;;;1.17;0.90;;;13.80;99.90;;;;;;5005920;28;20056;-84
2022/08/07 05:55:50;;;;;;;0.65;0.65;;;13.80;99.90;;;;;;5003452;28;20042;-83
2022/08/07 05:58:19;;;;;;;2.35;1.33;;;13.90;99.90;;;;;;5005516;28;20120;-83
2022/08/07 06:00:47;;;;;;;2.78;1.10;;;14.00;99.90;;;;;;5007538;28;20018;-83
2022/08/07 06:03:14;;;;;;;1.90;1.17;;;14.10;99.90;;;;;;5007337;28;20023;-83
2022/08/07 06:05:45;;;;;;;1.15;1.05;;;14.20;99.90;;;;;;5002861;28;20040;-84
2022/08/07 06:08:11;;;;;;;9.20;1.45;;;14.30;99.90;;;;;;5010170;28;20486;-83
2022/08/07 06:10:37;;;;;;;1.98;1.10;;;14.30;99.90;;;;;;5014038;28;20128;-83
2022/08/07 06:13:11;;;;;;;2.30;1.10;;;14.40;99.90;;;;;;5010771;28;20026;-83
2022/08/07 06:15:38;;;;;;;2.28;0.98;;;14.60;99.90;;;;;;5006591;28;20410;-83
2022/08/07 06:18:05;;;;;;;3.35;1.30;;;14.60;99.90;;;;;;5014784;28;20104;-83
2022/08/07 06:20:33;;;;;;;6.97;1.65;;;14.70;99.90;;;;;;5013885;28;20038;-83
2022/08/07 06:22:59;;;;;;;3.53;1.60;;;14.70;99.90;;;;;;5010442;28;20489;-83
2022/08/07 06:25:25;;;;;;;2.88;1.23;;;14.80;99.90;;;;;;5011732;28;20026;-84
2022/08/07 06:27:50;;;;;;;3.42;1.40;;;14.80;99.90;;;;;;5015088;28;20038;-84
2022/08/07 06:30:22;;;;;;;4.78;1.40;;;14.90;99.90;;;;;;5014679;28;20038;-84
2022/08/07 06:32:48;;;;;;;6.63;1.60;;;15.00;99.90;;;;;;5013606;28;20061;-84
2022/08/07 06:35:14;;;;;;;7.18;2.00;;;15.10;99.90;;;;;;5013284;28;20062;-84
2022/08/07 06:37:39;;;;;;;9.68;1.90;;;15.10;99.90;;;;;;5012335;28;20068;-83
2022/08/07 06:40:45;;;;;;;4.13;1.55;;;15.20;99.90;;;;;;5014173;28;20474;-84
2022/08/07 06:43:12;;;;;;;3.70;1.65;;;15.20;99.90;;;;;;5011180;28;20026;-83
2022/08/07 06:46:09;;;;;;;3.53;1.15;;;15.30;99.90;;;;;;5013952;28;20033;-83
2022/08/07 06:48:34;;;;;;;5.13;0.95;;;15.30;99.90;;;;;;5012573;28;20040;-83
2022/08/07 06:51:06;;;;;;;3.17;1.40;;;15.30;99.90;;;;;;4996885;28;20378;-83
2022/08/07 06:53:35;;;;;;;9.20;1.35;;;15.30;99.90;;;;;;5010887;28;20037;-83
2022/08/07 06:56:04;;;;;;;3.10;1.88;;;15.40;99.90;;;;;;5006567;28;20444;-83
2022/08/07 06:58:31;;;;;;;2.78;1.20;;;15.40;99.90;;;;;;5012352;28;20022;-83
2022/08/07 07:00:59;;;;;;;5.63;1.20;;;15.50;99.90;;;;;;5014087;28;20026;-83
2022/08/07 07:03:24;;;;;;;2.40;1.30;;;15.50;99.90;;;;;;5011285;28;20390;-83
2022/08/07 07:05:50;;;;;;;2.60;1.20;;;15.50;99.90;;;;;;5010140;28;20072;-83
2022/08/07 07:08:16;;;;;;;1.75;1.00;;;15.50;99.90;;;;;;5013005;28;20478;-83
2022/08/07 07:10:46;;;;;;;2.45;1.40;;;15.60;99.90;;;;;;5013707;28;20033;-83
2022/08/07 07:13:18;;;;;;;7.20;1.30;;;15.70;99.90;;;;;;4995499;28;20037;-83
2022/08/07 07:16:22;;;;;;;4.68;1.60;;;15.70;99.90;;;;;;5003746;28;20030;-83
2022/08/07 07:18:56;;;;;;;5.82;1.60;;;15.90;99.90;;;;;;5002131;28;20030;-84
2022/08/07 07:21:26;;;;;;;2.42;1.05;;;15.90;99.90;;;;;;5009538;28;20040;-83
2022/08/07 07:23:52;;;;;;;3.83;1.23;;;16.00;99.90;;;;;;5013187;28;20029;-83
2022/08/07 07:26:20;;;;;;;2.88;1.02;;;16.10;99.90;;;;;;5013675;28;20088;-83
2022/08/07 07:29:11;;;;;;;8.20;1.30;;;16.20;99.90;;;;;;5026277;28;20029;-83
2022/08/07 07:31:45;;;;;;;2.65;1.17;;;16.20;99.90;;;;;;5005606;28;20045;-83
2022/08/07 07:34:15;;;;;;;5.28;1.00;;;16.30;99.90;;;;;;5011821;28;20022;-83
2022/08/07 07:36:45;;;;;;;1.13;1.00;;;16.40;99.90;;;;;;5005160;28;20065;-83
2022/08/07 07:39:14;;;;;;;6.97;1.20;;;16.40;99.90;;;;;;5009386;28;20071;-84
2022/08/07 07:41:48;;;;;;;2.13;1.15;;;16.50;99.90;;;;;;5004576;28;20114;-83
2022/08/07 07:44:15;;;;;;;3.60;1.23;;;16.50;99.90;;;;;;5002767;28;20038;-83
2022/08/07 07:46:42;;;;;;;3.25;0.90;;;16.60;99.90;;;;;;5002960;28;20029;-83
2022/08/07 07:49:19;;;;;;;2.72;0.93;;;16.70;99.90;;;;;;5011661;28;20386;-83
2022/08/07 07:51:47;;;;;;;5.00;0.98;;;16.70;99.90;;;;;;5005042;28;20045;-83
2022/08/07 07:54:15;;;;;;;2.15;0.88;;;16.80;99.90;;;;;;5003213;28;20033;-83
2022/08/07 07:56:43;;;;;;;3.53;1.10;;;16.90;99.90;;;;;;5013630;28;20443;-84
2022/08/07 07:59:11;;;;;;;4.80;1.05;;;16.90;99.90;;;;;;5009615;28;20026;-83
2022/08/07 08:01:41;;;;;;;4.30;0.75;;;17.00;99.90;;;;;;5014178;28;20030;-84
2022/08/07 08:04:07;;;;;;;3.42;1.00;;;17.00;99.90;;;;;;5013979;28;20029;-83
2022/08/07 08:06:53;;;;;;;5.95;1.45;;;17.10;99.90;;;;;;5013695;28;20026;-83
2022/08/07 08:09:22;;;;;;;3.40;1.13;;;17.20;99.90;;;;;;5010393;28;20076;-83
2022/08/07 08:12:12;;;;;;;2.25;0.82;;;17.20;99.90;;;;;;5014016;28;20037;-83
2022/08/07 08:14:38;;;;;;;2.05;0.80;;;17.40;99.90;;;;;;5012625;28;20022;-83
2022/08/07 08:17:07;;;;;;;3.83;0.90;;;17.50;99.90;;;;;;5013843;28;20053;-83
2022/08/07 08:19:59;;;;;;;2.63;0.75;;;17.60;99.90;;;;;;5006154;28;20504;-83
2022/08/07 08:28:19;;;;;;;3.47;0.50;;;17.80;99.90;;;;;;5008132;28;20053;-83
2022/08/07 08:30:48;;;;;;;13.27;2.55;;;17.90;99.90;;;;;;5002513;28;20086;-83
2022/08/07 08:33:17;;;;;;;2.22;0.80;;;17.90;99.90;;;;;;5002995;28;20042;-83
2022/08/07 08:35:48;;;;;;;3.45;0.63;;;18.10;99.90;;;;;;5010341;28;20075;-83
2022/08/07 08:38:16;;;;;;;4.20;0.77;;;18.20;99.90;;;;;;5010759;28;20137;-83
2022/08/07 08:41:06;;;;;;;2.15;0.60;;;18.20;99.90;;;;;;5012768;28;20037;-83
2022/08/07 08:44:02;;;;;;;1.77;0.70;;;18.20;99.90;;;;;;5010539;28;20030;-83
2022/08/07 08:46:46;;;;;;;1.88;0.82;;;18.20;99.90;;;;;;5004837;28;20755;-84
2022/08/07 08:49:25;;;;;;;5.90;0.88;;;18.40;99.90;;;;;;5010437;28;20026;-83
2022/08/07 08:51:58;;;;;;;0.82;0.40;;;18.40;99.90;;;;;;5005923;28;20026;-84
2022/08/07 08:54:28;;;;;;;2.72;0.82;;;18.40;99.90;;;;;;5000365;28;20026;-84
2022/08/07 08:56:56;;;;;;;4.35;0.80;;;18.40;99.90;;;;;;5011018;28;20075;-84
2022/08/07 08:59:34;;;;;;;1.85;0.70;;;18.40;99.90;;;;;;5026226;28;20026;-84
2022/08/07 09:02:38;;;;;;;0.85;0.45;;;18.40;99.90;;;;;;5010926;28;20044;-84
2022/08/07 09:05:42;;;;;;;2.28;1.05;;;18.50;99.90;;;;;;4996001;28;20033;-84
2022/08/07 09:08:22;;;;;;;1.42;0.80;;;18.60;99.90;;;;;;4999695;28;20026;-83
2022/08/07 09:14:23;;;;;;;1.40;0.70;;;18.60;99.90;;;;;;5009284;28;20034;-85
2022/08/07 09:17:31;;;;;;;0.55;0.55;;;18.60;99.90;;;;;;4997537;28;20034;-85
2022/08/07 09:20:23;;;;;;;2.03;0.60;;;18.60;99.90;;;;;;5009035;28;20474;-84
2022/08/07 09:22:54;;;;;;;2.05;0.70;;;18.70;99.90;;;;;;5006860;28;20471;-84
2022/08/07 09:25:22;;;;;;;1.80;0.80;;;18.80;99.90;;;;;;5010607;28;20026;-84
2022/08/07 09:27:56;;;;;;;1.17;0.55;;;18.90;99.90;;;;;;5007402;28;20110;-85
2022/08/07 09:30:25;;;;;;;1.90;0.52;;;19.00;99.90;;;;;;5004538;28;20160;-85
2022/08/07 09:33:10;;;;;;;2.90;0.80;;;19.00;99.20;;;;;;5012685;28;20030;-84
2022/08/07 09:36:20;;;;;;;1.43;0.70;;;19.10;96.40;;;;;;5012982;28;20389;-84
2022/08/07 09:38:53;;;;;;;4.28;0.65;;;19.10;96.00;;;;;;4991435;28;20510;-84
2022/08/07 09:41:55;;;;;;;0.52;0.40;;;19.10;95.00;;;;;;4994953;28;20030;-83
2022/08/07 09:45:07;;;;;;;;;;;19.20;92.80;;;;;;4996650;28;20068;-85
2022/08/07 09:48:08;;;;;;;1.40;0.43;;;19.30;86.20;;;;;;5008973;28;20364;-86
2022/08/07 09:51:08;;;;;;;3.28;0.73;;;19.40;89.60;;;;;;5013668;28;20432;-85
2022/08/07 09:53:41;;;;;;;1.10;0.60;;;19.50;83.00;;;;;;4997838;28;20018;-85
2022/08/07 10:00:10;;;;;;;2.63;0.52;;;19.70;80.90;;;;;;5010602;28;20394;-84
2022/08/07 10:02:50;;;;;;;7.20;0.70;;;19.70;85.10;;;;;;5007756;28;20091;-84
2022/08/07 10:05:57;;;;;;;2.42;0.50;;;19.70;86.20;;;;;;5014313;28;20044;-84
2022/08/07 10:09:01;;;;;;;0.65;0.63;;;19.80;84.20;;;;;;5014073;28;20915;-84
2022/08/07 10:15:25;;;;;;;0.73;0.52;;;20.00;77.20;;;;;;4999199;28;20037;-85
2022/08/07 10:18:10;;;;;;;1.27;0.52;;;20.10;78.00;;;;;;4997314;28;20023;-85
2022/08/07 10:21:16;;;;;;;1.83;0.70;;;20.20;76.30;;;;;;5006683;28;20385;-85
2022/08/07 10:23:48;;;;;;;;;;;20.30;73.80;;;;;;5004676;28;20026;-85
2022/08/07 10:26:44;;;;;;;0.55;0.43;;;20.50;74.30;;;;;;5009865;28;19996;-85
2022/08/07 10:32:30;;;;;;;2.50;0.55;;;20.70;66.70;;;;;;5001312;28;20160;-85
2022/08/07 10:35:35;;;;;;;2.53;0.47;;;20.60;66.00;;;;;;5002048;28;20065;-86
2022/08/07 10:38:28;;;;;;;1.40;0.65;;;20.60;65.70;;;;;;5009561;28;20029;-84
2022/08/07 10:41:26;;;;;;;5.10;1.38;;;20.70;67.50;;;;;;5008082;28;20561;-84
2022/08/07 10:44:19;;;;;;;5.88;0.47;;;20.70;64.80;;;;;;5009049;28;20478;-85
2022/08/07 10:50:05;;;;;;;2.33;0.60;;;20.80;66.40;;;;;;5014399;28;20080;-85
2022/08/07 10:52:50;;;;;;;1.50;0.70;;;20.80;67.00;;;;;;5009429;28;20084;-85
2022/08/07 10:56:07;;;;;;;3.45;0.70;;;20.90;65.00;;;;;;5006411;28;21028;-84
2022/08/07 10:58:51;;;;;;;;;;;20.90;64.30;;;;;;4996384;28;20445;-86
2022/08/07 11:04:41;;;;;;;2.55;0.70;;;21.10;61.30;;;;;;5006687;28;20037;-85
2022/08/07 11:07:38;;;;;;;3.17;0.50;;;21.20;57.80;;;;;;5017490;28;20022;-86
2022/08/07 11:10:20;;;;;;;0.40;0.40;;;21.20;57.60;;;;;;4995331;28;20077;-88
2022/08/07 11:13:02;;;;;;;3.13;0.50;;;21.20;60.30;;;;;;5002852;28;20026;-87
2022/08/07 11:15:32;;;;;;;1.73;0.70;;;21.30;60.00;;;;;;5014401;28;20033;-86
2022/08/07 11:21:44;;;;;;;2.00;0.68;;;21.50;56.90;;;;;;5010187;28;20564;-85
2022/08/07 11:24:47;;;;;;;2.72;0.57;;;21.50;55.80;;;;;;5010563;28;20029;-84
2022/08/07 11:27:46;;;;;;;2.05;0.50;;;21.50;55.90;;;;;;5005254;28;20109;-84
2022/08/07 11:30:19;;;;;;;4.57;0.55;;;21.50;56.40;;;;;;5013892;28;20053;-84
2022/08/07 11:33:13;;;;;;;1.85;0.38;;;21.50;55.90;;;;;;5013336;28;20537;-84
2022/08/07 11:36:07;;;;;;;0.30;0.25;;;21.50;55.50;;;;;;5012012;28;20080;-84
2022/08/07 11:38:48;;;;;;;0.40;0.30;;;21.60;55.10;;;;;;5013844;28;20086;-84
2022/08/07 11:41:18;;;;;;;0.90;0.50;;;21.60;55.90;;;;;;5014327;28;20022;-84
2022/08/07 11:44:22;;;;;;;0.60;0.25;;;21.50;56.20;;;;;;5012791;28;20084;-83
2022/08/07 11:47:22;;;;;;;1.85;0.50;;;21.60;55.60;;;;;;5002018;28;20382;-84
2022/08/07 11:50:11;;;;;;;3.60;0.60;;;21.70;56.60;;;;;;4994862;28;20474;-84
2022/08/07 11:52:55;;;;;;;1.88;0.60;;;21.70;54.90;;;;;;5010283;28;20022;-83
2022/08/07 11:56:01;;;;;;;0.75;0.45;;;21.80;55.30;;;;;;4997494;28;20117;-84
2022/08/07 11:59:03;;;;;;;4.68;0.65;;;22.00;55.70;;;;;;4995547;28;20034;-84
2022/08/07 12:05:17;;;;;;;1.92;0.40;;;22.40;52.00;;;;;;5003712;28;20065;-84
2022/08/07 12:08:28;;;;;;;1.80;0.50;;;22.40;52.90;;;;;;5012599;28;20461;-84
2022/08/07 12:11:23;;;;;;;1.15;0.30;;;22.40;51.70;;;;;;5028640;28;20026;-84
2022/08/07 12:13:48;;;;;;;3.92;0.40;;;22.30;51.60;;;;;;4996321;28;20031;-83
2022/08/07 12:16:18;;;;;;;0.50;0.50;;;22.30;50.90;;;;;;5003302;28;20049;-84
2022/08/07 12:19:05;;;;;;;0.30;0.22;;;22.20;50.00;;;;;;5011164;28;20371;-84
2022/08/07 12:21:47;;;;;;;0.40;0.40;;;22.10;50.40;;;;;;5006832;28;20022;-84
2022/08/07 12:24:20;;;;;;;1.20;0.47;;;22.10;49.90;;;;;;5005765;28;20041;-83
2022/08/07 12:27:18;;;;;;;5.05;0.80;;;22.00;51.40;;;;;;5010889;28;20088;-84
2022/08/07 12:29:50;;;;;;;1.25;0.60;;;22.10;50.50;;;;;;4975717;28;20038;-84
2022/08/07 12:32:48;;;;;;;1.38;0.50;;;22.10;50.40;;;;;;5005468;28;20672;-84
2022/08/07 12:35:16;;;;;;;0.95;0.50;;;22.10;49.10;;;;;;4999871;28;20046;-84
2022/08/07 12:37:48;;;;;;;1.85;0.60;;;22.00;49.70;;;;;;5006874;28;20386;-83
2022/08/07 12:40:19;;;;;;;1.02;0.60;;;22.10;49.20;;;;;;4996574;28;20375;-83
2022/08/07 12:42:53;;;;;;;1.60;0.77;;;22.10;49.80;;;;;;4995660;28;20030;-84
2022/08/07 12:45:24;;;;;;;0.93;0.40;;;22.20;49.50;;;;;;4993585;28;20105;-84
2022/08/07 12:48:22;;;;;;;2.20;0.50;;;22.30;49.20;;;;;;5010232;28;20030;-84
2022/08/07 12:51:14;;;;;;;1.13;0.57;;;22.40;49.30;;;;;;5012713;28;20367;-84
2022/08/07 12:53:59;;;;;;;1.73;0.40;;;22.40;49.10;;;;;;5010485;28;20525;-84
2022/08/07 12:56:38;;;;;;;1.75;0.77;;;22.40;48.60;;;;;;5002605;28;20030;-83
2022/08/07 12:59:05;;;;;;;3.75;0.75;;;22.40;47.40;;;;;;5010692;28;20044;-84
2022/08/07 13:01:57;;;;;;;1.45;0.40;;;22.40;48.10;;;;;;5009567;28;20022;-84
2022/08/07 13:04:46;;;;;;;2.95;1.08;;;22.50;48.40;;;;;;5009097;28;20034;-83
2022/08/07 13:07:51;;;;;;;1.88;0.50;;;22.40;48.30;;;;;;4996650;28;20031;-84
2022/08/07 13:10:31;;;;;;;0.75;0.40;;;22.40;47.90;;;;;;5011424;28;20030;-84
2022/08/07 13:13:15;;;;;;;0.98;0.43;;;22.40;47.80;;;;;;5019768;28;20056;-83
2022/08/07 13:15:59;;;;;;;1.17;0.40;;;22.40;48.30;;;;;;5006952;28;20022;-83
2022/08/07 13:19:05;;;;;;;1.15;0.50;;;22.40;48.10;;;;;;5012358;28;20057;-83
2022/08/07 13:21:46;;;;;;;0.40;0.32;;;22.40;47.40;;;;;;5028149;28;20034;-83
2022/08/07 13:24:40;;;;;;;0.43;0.30;;;22.30;48.50;;;;;;5027849;28;20018;-83
2022/08/07 13:27:23;;;;;;;4.05;0.50;;;22.40;48.30;;;;;;5028105;28;20033;-83
2022/08/07 13:30:03;;;;;;;0.88;0.60;;;22.50;49.40;;;;;;5013234;28;20018;-83
2022/08/07 13:32:45;;;;;;;2.42;0.95;;;22.50;48.60;;;;;;5027742;28;20042;-83
2022/08/07 13:35:36;;;;;;;2.85;0.60;;;22.60;48.00;;;;;;5027836;28;20029;-83
2022/08/07 13:38:26;;;;;;;2.50;0.57;;;22.60;47.90;;;;;;5026956;28;20030;-83
2022/08/07 13:41:34;;;;;;;1.13;0.65;;;22.70;47.50;;;;;;5011595;28;20033;-83
2022/08/07 13:44:18;;;;;;;1.83;0.63;;;22.70;47.90;;;;;;5012776;28;20022;-83
2022/08/07 13:46:46;;;;;;;1.77;0.93;;;22.80;47.10;;;;;;5012639;28;20021;-83
2022/08/07 13:49:15;;;;;;;4.30;0.88;;;22.70;46.40;;;;;;5012448;28;20033;-83
2022/08/07 13:51:42;;;;;;;0.73;0.32;;;22.80;47.30;;;;;;5012526;28;20049;-83
2022/08/07 13:54:12;;;;;;;5.50;0.60;;;22.70;47.50;;;;;;5005539;28;20042;-83
2022/08/07 13:56:39;;;;;;;1.45;0.40;;;22.80;48.60;;;;;;5012749;28;20101;-83
2022/08/07 13:59:24;;;;;;;2.40;0.68;;;22.90;48.20;;;;;;5012576;28;20034;-83
2022/08/07 14:02:17;;;;;;;0.40;0.32;;;22.90;47.20;;;;;;5012733;28;20049;-84
2022/08/07 14:04:42;;;;;;;1.95;0.70;;;22.90;44.80;;;;;;5012479;28;20026;-83
2022/08/07 14:07:11;;;;;;;0.73;0.52;;;23.00;47.60;;;;;;5012318;28;20025;-83
2022/08/07 14:09:39;;;;;;;6.25;0.70;;;23.00;46.60;;;;;;5003560;28;20030;-82
2022/08/07 14:12:09;;;;;;;1.60;0.65;;;23.10;45.70;;;;;;4998196;28;20052;-83
2022/08/07 14:14:46;;;;;;;2.08;0.38;;;23.00;45.30;;;;;;5005962;28;20026;-83
2022/08/07 14:17:14;;;;;;;2.70;0.50;;;23.10;45.90;;;;;;4999531;28;20101;-85
2022/08/07 14:19:55;;;;;;;3.90;0.60;;;23.00;44.90;;;;;;4999396;28;20021;-83
2022/08/07 14:22:29;;;;;;;4.72;0.50;;;23.00;44.40;;;;;;5010446;28;20069;-83
2022/08/07 14:25:02;;;;;;;0.40;0.40;;;22.90;45.10;;;;;;5027858;28;20030;-83
2022/08/07 14:27:50;;;;;;;0.95;0.50;;;22.90;45.60;;;;;;5011153;28;20034;-82